Time;durP1;ratioP1;P1;durP2;ratioP2;P2;SDS_P1;SDS_P2;PMS_P1;PMS_P2;Temp;Humidity;BMP_temperature;BMP_pressure;BME280_temperature;BME280_humidity;BME280_pressure;Samples;Min_cycle;Max_cycle;Signal;HPM_P1;HPM_P2
2022/08/22 00:02:18;;;;;;;11.43;3.42;;;17.10;99.90;;;;;;4997841;28;20038;-95
2022/08/22 00:05:14;;;;;;;10.13;3.92;;;17.00;99.90;;;;;;4980764;28;20059;-95
2022/08/22 00:07:59;;;;;;;12.02;4.20;;;17.00;99.90;;;;;;5002755;28;20073;-96
2022/08/22 00:10:28;;;;;;;14.23;3.90;;;17.40;99.90;;;;;;4999191;28;20050;-95
2022/08/22 00:13:18;;;;;;;12.55;4.07;;;17.00;99.90;;;;;;4980236;28;20042;-93
2022/08/22 00:15:49;;;;;;;12.07;3.67;;;17.50;99.90;;;;;;4980742;28;20129;-96
2022/08/22 00:18:15;;;;;;;10.60;3.42;;;16.90;99.90;;;;;;4998326;28;20125;-96
2022/08/22 00:20:51;;;;;;;13.98;3.80;;;16.90;99.90;;;;;;4981110;28;20141;-95
2022/08/22 00:23:30;;;;;;;10.15;3.85;;;16.80;99.90;;;;;;4986774;28;20041;-95
2022/08/22 00:26:00;;;;;;;12.05;3.70;;;16.80;99.90;;;;;;5002268;28;20062;-94
2022/08/22 00:28:58;;;;;;;12.80;4.00;;;17.20;99.90;;;;;;4989022;28;20051;-94
2022/08/22 00:31:31;;;;;;;10.30;3.60;;;16.80;99.90;;;;;;4974918;28;20117;-94
2022/08/22 00:34:16;;;;;;;10.40;4.25;;;16.70;99.90;;;;;;4997581;28;20486;-94
2022/08/22 00:37:24;;;;;;;11.80;4.03;;;16.70;99.90;;;;;;4980140;28;20089;-94
2022/08/22 00:39:59;;;;;;;12.88;4.05;;;16.70;99.90;;;;;;4940776;29;20051;-94
2022/08/22 00:42:49;;;;;;;11.70;4.05;;;17.10;99.90;;;;;;4993408;28;20050;-94
2022/08/22 00:45:49;;;;;;;15.35;4.35;;;16.60;99.90;;;;;;4980083;28;20047;-95
2022/08/22 00:48:48;;;;;;;14.57;5.28;;;16.60;99.90;;;;;;4989506;28;20058;-96
2022/08/22 00:51:35;;;;;;;13.82;4.47;;;17.20;99.90;;;;;;4990147;28;20057;-95
2022/08/22 00:54:20;;;;;;;11.73;4.88;;;16.60;99.90;;;;;;5018280;28;20046;-95
2022/08/22 00:57:27;;;;;;;15.45;5.55;;;16.60;99.90;;;;;;5017039;28;20095;-94
2022/08/22 00:59:58;;;;;;;14.55;5.50;;;16.60;99.90;;;;;;4980558;28;20462;-94
2022/08/22 01:03:03;;;;;;;17.65;5.72;;;16.60;99.90;;;;;;4979797;28;20054;-95
2022/08/22 01:05:56;;;;;;;16.13;5.05;;;16.60;99.90;;;;;;4996893;28;20048;-95
2022/08/22 01:08:46;;;;;;;13.98;5.10;;;16.60;99.90;;;;;;4979028;28;20092;-94
2022/08/22 01:11:23;;;;;;;17.10;5.90;;;16.60;99.90;;;;;;4979459;28;20104;-95
2022/08/22 01:14:30;;;;;;;15.38;6.13;;;16.50;99.90;;;;;;4996540;28;20502;-94
2022/08/22 01:17:20;;;;;;;12.93;5.95;;;16.50;99.90;;;;;;4982448;28;20054;-95
2022/08/22 01:20:09;;;;;;;16.00;6.30;;;16.50;99.90;;;;;;4979140;28;20117;-94
2022/08/22 01:22:46;;;;;;;17.00;6.18;;;16.40;99.90;;;;;;4979150;28;20050;-93
2022/08/22 01:25:34;;;;;;;15.70;6.95;;;16.40;99.90;;;;;;4978791;28;20050;-95
2022/08/22 01:28:21;;;;;;;16.88;6.20;;;16.40;99.90;;;;;;4996584;28;20042;-95
2022/08/22 01:31:06;;;;;;;18.23;7.78;;;16.40;99.90;;;;;;4996304;28;20069;-94
2022/08/22 01:34:02;;;;;;;15.82;5.78;;;16.40;99.90;;;;;;4978928;28;20050;-95
2022/08/22 01:36:56;;;;;;;15.23;6.20;;;16.40;99.90;;;;;;4996394;28;20102;-95
2022/08/22 01:39:40;;;;;;;14.38;6.75;;;16.40;99.90;;;;;;4987892;28;20060;-95
2022/08/22 01:42:59;;;;;;;17.80;6.38;;;16.40;99.90;;;;;;5002001;28;20426;-95
2022/08/22 01:45:35;;;;;;;12.75;6.05;;;16.40;99.90;;;;;;4939532;29;20515;-94
2022/08/22 01:48:07;;;;;;;17.70;6.10;;;16.30;99.90;;;;;;4987491;28;20063;-94
2022/08/22 01:50:38;;;;;;;14.60;6.15;;;16.30;99.90;;;;;;4981685;28;20058;-95
2022/08/22 01:53:29;;;;;;;15.88;5.47;;;16.30;99.90;;;;;;4995942;28;20081;-94
2022/08/22 01:56:18;;;;;;;13.35;5.82;;;16.30;99.90;;;;;;4997977;28;20037;-95
2022/08/22 01:58:58;;;;;;;13.13;5.95;;;16.30;99.90;;;;;;4984838;28;20043;-94
2022/08/22 02:01:56;;;;;;;17.70;6.15;;;16.30;99.90;;;;;;5015806;28;20050;-95
2022/08/22 02:04:52;;;;;;;15.27;5.95;;;16.30;99.90;;;;;;4999854;28;20038;-94
2022/08/22 02:07:32;;;;;;;15.65;6.18;;;16.40;99.90;;;;;;4984748;28;20052;-95
2022/08/22 02:10:21;;;;;;;11.52;5.60;;;16.30;99.90;;;;;;5002291;28;20050;-93
2022/08/22 02:13:16;;;;;;;15.23;5.63;;;16.30;99.90;;;;;;4980424;28;20074;-95
2022/08/22 02:16:07;;;;;;;13.73;5.78;;;16.30;99.90;;;;;;4996188;28;20050;-93
2022/08/22 02:18:55;;;;;;;12.63;5.95;;;16.40;99.90;;;;;;4995236;28;20129;-94
2022/08/22 02:21:37;;;;;;;13.40;5.45;;;16.40;99.90;;;;;;4976852;28;20085;-94
2022/08/22 02:24:34;;;;;;;13.45;6.57;;;16.40;99.90;;;;;;4977905;28;20375;-94
2022/08/22 02:27:15;;;;;;;15.05;6.10;;;16.40;99.90;;;;;;4955212;28;20058;-95
2022/08/22 02:30:08;;;;;;;16.30;6.78;;;16.50;99.90;;;;;;4977947;28;20065;-94
2022/08/22 02:33:02;;;;;;;13.93;6.18;;;16.40;99.90;;;;;;4977310;28;20047;-94
2022/08/22 02:35:41;;;;;;;15.07;6.70;;;16.40;99.90;;;;;;4995004;28;20100;-93
2022/08/22 02:38:32;;;;;;;12.90;6.15;;;16.40;99.90;;;;;;4995117;28;20399;-96
2022/08/22 02:41:10;;;;;;;13.93;5.93;;;16.40;99.90;;;;;;4977403;28;20042;-95
2022/08/22 02:43:51;;;;;;;15.13;5.97;;;16.40;99.90;;;;;;4977378;28;20039;-95
2022/08/22 02:46:48;;;;;;;11.98;5.80;;;16.40;99.90;;;;;;4977704;28;20049;-94
2022/08/22 02:49:35;;;;;;;16.13;5.75;;;16.40;99.90;;;;;;4976777;28;20081;-95
2022/08/22 02:52:16;;;;;;;13.98;5.95;;;16.40;99.90;;;;;;4977358;28;20085;-95
2022/08/22 02:54:55;;;;;;;15.35;5.70;;;16.40;99.90;;;;;;4977478;28;20060;-94
2022/08/22 02:57:44;;;;;;;14.90;6.28;;;16.30;99.90;;;;;;4977545;28;20053;-95
2022/08/22 03:00:22;;;;;;;15.68;5.90;;;16.40;99.90;;;;;;4977222;28;20054;-95
2022/08/22 03:03:21;;;;;;;16.85;6.70;;;16.40;99.90;;;;;;4977048;28;20050;-94
2022/08/22 03:06:00;;;;;;;17.30;6.43;;;16.40;99.90;;;;;;4977304;28;20050;-95
2022/08/22 03:08:33;;;;;;;17.27;6.65;;;16.50;99.90;;;;;;4976619;28;20045;-94
2022/08/22 03:11:25;;;;;;;18.17;7.10;;;16.50;99.90;;;;;;4976770;28;20516;-95
2022/08/22 03:14:12;;;;;;;15.93;6.63;;;16.50;99.90;;;;;;4998422;28;20050;-94
2022/08/22 03:16:57;;;;;;;15.55;6.95;;;16.90;99.90;;;;;;4978874;28;20068;-94
2022/08/22 03:19:57;;;;;;;17.45;6.70;;;16.60;99.90;;;;;;4994188;28;20430;-96
2022/08/22 03:22:42;;;;;;;16.52;7.30;;;16.60;99.90;;;;;;4976788;28;20070;-95
2022/08/22 03:25:32;;;;;;;14.25;7.47;;;16.60;99.90;;;;;;4994338;28;20050;-95
2022/08/22 03:28:10;;;;;;;18.02;7.90;;;16.50;99.90;;;;;;4976964;28;20050;-95
2022/08/22 03:30:55;;;;;;;21.48;7.78;;;16.50;99.90;;;;;;4976480;28;20050;-93
2022/08/22 03:33:23;;;;;;;18.05;7.90;;;16.50;99.90;;;;;;4977289;28;20050;-94
2022/08/22 03:35:54;;;;;;;13.88;7.70;;;16.80;99.90;;;;;;5018001;28;20026;-94
2022/08/22 03:39:08;;;;;;;17.23;7.70;;;16.70;99.90;;;;;;5009644;28;20046;-95
2022/08/22 03:41:56;;;;;;;18.27;7.18;;;16.40;99.90;;;;;;4984113;28;20050;-95
2022/08/22 03:45:07;;;;;;;15.75;7.07;;;16.40;99.90;;;;;;4982186;28;20046;-94
2022/08/22 03:47:43;;;;;;;14.02;7.00;;;16.90;99.90;;;;;;4981718;28;20470;-95
2022/08/22 03:50:38;;;;;;;15.30;6.65;;;16.40;99.90;;;;;;4976733;28;20132;-94
2022/08/22 03:53:17;;;;;;;14.65;6.60;;;16.30;99.90;;;;;;4976381;28;20061;-94
2022/08/22 03:56:09;;;;;;;16.75;7.68;;;16.30;99.90;;;;;;4985407;28;20041;-94
2022/08/22 03:59:01;;;;;;;17.48;6.90;;;16.30;99.90;;;;;;4963796;28;20050;-95
2022/08/22 04:01:46;;;;;;;14.70;6.97;;;16.30;99.90;;;;;;4971019;28;20043;-94
2022/08/22 04:04:37;;;;;;;15.93;7.50;;;16.30;99.90;;;;;;4977988;28;20561;-94
2022/08/22 04:07:20;;;;;;;17.20;7.38;;;16.30;99.90;;;;;;4977941;28;20052;-94
2022/08/22 04:10:24;;;;;;;16.75;7.18;;;16.30;99.90;;;;;;4976312;28;20050;-95
2022/08/22 04:13:28;;;;;;;15.27;7.10;;;16.30;99.90;;;;;;4976451;28;20046;-94
2022/08/22 04:16:31;;;;;;;17.38;7.32;;;16.20;99.90;;;;;;4958142;28;20486;-94
2022/08/22 04:19:16;;;;;;;14.65;6.75;;;16.20;99.90;;;;;;4993514;28;20517;-94
2022/08/22 04:22:15;;;;;;;15.15;6.70;;;16.20;99.90;;;;;;4976307;28;20060;-95
2022/08/22 04:25:06;;;;;;;13.27;6.60;;;16.30;99.90;;;;;;4976370;28;20053;-95
2022/08/22 04:27:44;;;;;;;14.93;6.93;;;16.30;99.90;;;;;;4976155;28;20057;-94
2022/08/22 04:30:30;;;;;;;15.85;6.65;;;16.30;99.90;;;;;;4976311;28;20073;-95
2022/08/22 04:33:05;;;;;;;18.05;6.85;;;16.20;99.90;;;;;;4994807;28;20077;-95
2022/08/22 04:35:41;;;;;;;14.85;6.68;;;16.30;99.90;;;;;;4993211;28;20070;-94
2022/08/22 04:38:29;;;;;;;17.45;6.53;;;16.50;99.90;;;;;;4993793;28;20068;-94
2022/08/22 04:41:03;;;;;;;16.58;6.93;;;16.60;99.90;;;;;;4975896;28;20042;-94
2022/08/22 04:43:57;;;;;;;16.75;6.50;;;16.80;99.90;;;;;;4976684;28;20045;-95
2022/08/22 04:46:37;;;;;;;15.00;6.60;;;16.20;99.90;;;;;;5003240;28;20061;-94
2022/08/22 04:49:25;;;;;;;13.57;5.97;;;16.30;99.90;;;;;;4980903;28;20097;-95
2022/08/22 04:52:21;;;;;;;14.55;6.18;;;16.30;99.90;;;;;;4970114;28;20058;-93
2022/08/22 04:55:02;;;;;;;14.82;6.80;;;16.30;99.90;;;;;;4979644;28;20049;-94
2022/08/22 04:57:52;;;;;;;17.02;7.43;;;16.30;99.90;;;;;;4999735;28;20038;-94
2022/08/22 05:00:19;;;;;;;17.20;7.20;;;16.30;99.90;;;;;;4982024;28;20078;-95
2022/08/22 05:02:49;;;;;;;13.38;6.32;;;16.30;99.90;;;;;;4982379;28;20101;-94
2022/08/22 05:05:20;;;;;;;16.10;6.47;;;16.30;99.90;;;;;;4982814;28;20500;-94
2022/08/22 05:07:57;;;;;;;14.50;6.18;;;16.30;99.90;;;;;;4995450;28;20023;-93
2022/08/22 05:10:36;;;;;;;15.40;5.97;;;16.30;99.90;;;;;;5002203;28;20033;-95
2022/08/22 05:13:09;;;;;;;17.40;6.35;;;16.30;99.90;;;;;;4997885;28;20065;-93
2022/08/22 05:15:42;;;;;;;16.40;6.45;;;17.10;99.90;;;;;;4997675;28;20034;-94
2022/08/22 05:18:32;;;;;;;19.57;7.37;;;16.40;99.90;;;;;;4979564;28;20046;-94
2022/08/22 05:21:01;;;;;;;16.38;6.85;;;16.50;99.90;;;;;;4993816;28;20347;-95
2022/08/22 05:23:38;;;;;;;16.25;6.30;;;16.50;99.90;;;;;;4996940;28;20129;-95
2022/08/22 05:26:06;;;;;;;14.85;6.30;;;16.50;99.90;;;;;;4980487;28;20112;-91
2022/08/22 05:28:37;;;;;;;17.85;6.85;;;16.70;99.90;;;;;;4978146;28;20043;-92
2022/08/22 05:31:12;;;;;;;13.48;6.25;;;17.30;99.90;;;;;;4979051;28;20137;-91
2022/08/22 05:33:46;;;;;;;13.65;6.20;;;16.70;99.90;;;;;;4999079;28;20042;-93
2022/08/22 05:36:16;;;;;;;13.35;5.85;;;16.70;99.90;;;;;;4976922;28;20042;-92
2022/08/22 05:38:53;;;;;;;15.32;6.10;;;16.90;99.90;;;;;;4998920;28;20054;-90
2022/08/22 05:41:34;;;;;;;16.27;5.53;;;17.60;99.90;;;;;;4996850;28;20047;-89
2022/08/22 05:44:26;;;;;;;14.02;5.65;;;17.80;99.90;;;;;;4977558;28;20070;-88
2022/08/22 05:47:51;;;;;;;14.43;6.18;;;16.90;99.90;;;;;;4941287;29;20557;-89
2022/08/22 05:51:01;;;;;;;12.80;6.10;;;17.00;99.90;;;;;;4902147;29;20049;-90
2022/08/22 05:53:37;;;;;;;12.65;5.88;;;17.00;99.90;;;;;;4939290;29;20083;-87
2022/08/22 05:56:25;;;;;;;17.77;6.53;;;17.00;99.90;;;;;;4975914;28;20046;-93
2022/08/22 05:59:15;;;;;;;17.70;5.43;;;17.20;99.90;;;;;;4977211;28;20089;-92
2022/08/22 06:02:05;;;;;;;16.88;5.97;;;17.20;99.90;;;;;;4977858;28;20058;-91
2022/08/22 06:07:33;;;;;;;13.45;6.38;;;17.10;99.90;;;;;;5067999;23;20047;-91
2022/08/22 06:10:02;;;;;;;;;;;17.60;99.90;;;;;;4958334;28;20135;-90
2022/08/22 06:13:01;;;;;;;16.98;6.47;;;17.00;99.90;;;;;;4957067;28;19921;-90
2022/08/22 06:15:52;;;;;;;16.13;5.95;;;17.00;99.90;;;;;;4969600;28;20039;-88
2022/08/22 06:18:36;;;;;;;14.48;6.70;;;16.60;99.90;;;;;;4977152;28;20502;-89
2022/08/22 06:21:06;;;;;;;15.77;6.50;;;17.70;99.90;;;;;;4957694;28;20053;-89
2022/08/22 06:23:56;;;;;;;16.40;6.43;;;17.10;99.90;;;;;;4957121;28;20403;-88
2022/08/22 06:26:44;;;;;;;14.57;5.95;;;17.10;99.90;;;;;;4956627;28;20046;-89
2022/08/22 06:29:35;;;;;;;13.70;5.85;;;17.20;99.90;;;;;;4975028;28;20495;-89
2022/08/22 06:32:12;;;;;;;13.48;6.75;;;17.60;99.90;;;;;;4957961;28;20137;-89
2022/08/22 06:35:25;;;;;;;15.68;6.35;;;17.20;99.90;;;;;;4956298;28;20082;-88
2022/08/22 06:37:57;;;;;;;14.80;6.13;;;17.30;99.90;;;;;;4880755;29;20509;-88
2022/08/22 06:40:42;;;;;;;15.18;6.70;;;17.90;99.90;;;;;;4879956;29;20549;-87
2022/08/22 06:43:09;;;;;;;14.48;6.60;;;18.10;99.90;;;;;;4954064;28;20058;-87
2022/08/22 06:45:35;;;;;;;13.90;6.57;;;18.20;99.90;;;;;;4971847;28;20066;-87
2022/08/22 06:48:22;;;;;;;14.43;6.32;;;17.50;99.90;;;;;;4957262;28;20158;-88
2022/08/22 06:51:09;;;;;;;15.00;6.85;;;17.20;99.90;;;;;;4957213;28;20058;-87
2022/08/22 06:54:03;;;;;;;14.95;6.30;;;17.80;99.90;;;;;;4973778;28;20569;-88
2022/08/22 06:56:51;;;;;;;13.52;5.93;;;17.70;99.90;;;;;;4939196;28;20069;-88
2022/08/22 07:02:41;;;;;;;14.82;6.07;;;18.10;99.90;;;;;;4955721;28;20055;-89
2022/08/22 07:05:33;;;;;;;15.30;5.78;;;17.90;99.90;;;;;;4974088;28;20050;-88
2022/08/22 07:08:25;;;;;;;16.60;5.75;;;17.60;99.90;;;;;;4971095;23;20057;-89
2022/08/22 07:11:42;;;;;;;12.95;6.15;;;18.10;99.90;;;;;;4973892;28;20399;-88
2022/08/22 07:14:10;;;;;;;14.30;5.78;;;18.30;99.90;;;;;;4969914;28;20097;-88
2022/08/22 07:16:55;;;;;;;14.35;5.75;;;18.60;99.90;;;;;;4973363;28;20402;-89
2022/08/22 07:19:44;;;;;;;17.15;5.55;;;18.90;99.90;;;;;;4974210;28;20134;-89
2022/08/22 07:22:39;;;;;;;13.52;5.50;;;18.40;99.90;;;;;;4955951;28;20853;-89
2022/08/22 07:25:12;;;;;;;12.60;5.82;;;18.10;99.90;;;;;;4956501;28;20121;-89
2022/08/22 07:28:02;;;;;;;12.27;5.65;;;18.30;99.90;;;;;;4955768;28;20171;-87
2022/08/22 07:30:58;;;;;;;13.90;5.32;;;18.40;99.90;;;;;;4978795;28;20125;-91
2022/08/22 07:34:05;;;;;;;14.20;5.10;;;18.30;99.90;;;;;;4937191;29;20063;-90
2022/08/22 07:36:49;;;;;;;14.77;4.60;;;18.80;99.90;;;;;;4937895;29;20114;-89
2022/08/22 07:39:37;;;;;;;14.25;4.90;;;19.30;99.90;;;;;;4948853;28;20494;-91
2022/08/22 07:42:06;;;;;;;12.05;4.70;;;18.60;99.90;;;;;;4995215;23;20510;-90
2022/08/22 07:44:59;;;;;;;15.82;5.22;;;18.60;99.90;;;;;;4975056;28;20133;-91
2022/08/22 07:48:09;;;;;;;;;;;;;;;;;;;;;
2022/08/22 07:54:32;;;;;;;11.68;4.50;;;18.80;99.90;;;;;;4967558;28;20050;-90
2022/08/22 08:00:33;;;;;;;15.05;4.72;;;18.80;99.90;;;;;;4975511;28;20157;-89
2022/08/22 08:03:09;;;;;;;17.17;5.50;;;19.10;99.90;;;;;;4975959;28;20046;-89
2022/08/22 08:05:49;;;;;;;14.02;4.90;;;19.30;99.90;;;;;;4992976;28;20134;-90
2022/08/22 08:09:01;;;;;;;13.52;4.57;;;19.20;99.90;;;;;;5000343;28;20046;-89
2022/08/22 08:11:46;;;;;;;13.35;5.40;;;19.30;99.90;;;;;;4975317;28;20058;-89
2022/08/22 08:14:28;;;;;;;14.77;5.28;;;19.60;99.90;;;;;;4985373;28;20101;-93
2022/08/22 08:17:21;;;;;;;12.40;4.97;;;19.40;99.90;;;;;;4982054;28;20038;-91
2022/08/22 08:20:09;;;;;;;15.53;6.00;;;20.10;99.90;;;;;;4937979;28;20059;-89
2022/08/22 08:22:52;;;;;;;16.58;5.20;;;19.60;99.90;;;;;;4976113;28;20309;-88
2022/08/22 08:25:49;;;;;;;15.95;5.90;;;19.70;99.90;;;;;;4959172;28;20054;-88
2022/08/22 08:28:33;;;;;;;13.40;5.53;;;19.70;99.90;;;;;;4976996;28;20109;-89
2022/08/22 08:31:17;;;;;;;16.67;5.47;;;20.40;99.90;;;;;;4977782;28;20085;-90
2022/08/22 08:33:46;;;;;;;14.80;5.72;;;19.90;99.90;;;;;;4976887;28;20148;-89
2022/08/22 08:36:36;;;;;;;15.32;5.22;;;20.10;99.90;;;;;;4959820;28;20043;-90
2022/08/22 08:39:28;;;;;;;15.30;5.45;;;19.80;99.90;;;;;;4977144;28;20094;-89
2022/08/22 08:45:49;;;;;;;14.48;4.75;;;19.80;99.90;;;;;;4982424;28;20085;-93
2022/08/22 08:48:43;;;;;;;15.20;5.15;;;19.90;99.90;;;;;;4995929;28;20050;-88
2022/08/22 08:52:06;;;;;;;12.55;4.60;;;20.80;99.90;;;;;;4978586;28;20042;-87
2022/08/22 08:55:25;;;;;;;16.85;4.75;;;20.30;99.90;;;;;;4991548;28;20165;-88
2022/08/22 08:58:36;;;;;;;14.95;4.63;;;20.60;99.90;;;;;;4949370;28;20042;-88
2022/08/22 09:01:49;;;;;;;14.00;4.10;;;20.80;99.90;;;;;;4958466;28;20050;-88
2022/08/22 09:04:36;;;;;;;14.30;4.72;;;20.90;99.90;;;;;;4958778;28;20046;-89
2022/08/22 09:07:14;;;;;;;14.70;4.65;;;21.00;99.90;;;;;;4959111;28;20055;-88
2022/08/22 09:10:29;;;;;;;12.98;4.05;;;21.00;99.90;;;;;;4958391;28;20046;-89
2022/08/22 09:13:40;;;;;;;11.63;3.28;;;21.00;99.90;;;;;;4959653;28;20086;-89
2022/08/22 09:16:56;;;;;;;14.85;3.35;;;20.90;99.90;;;;;;4979244;28;20043;-88
2022/08/22 09:19:59;;;;;;;11.30;3.58;;;21.10;99.90;;;;;;4976258;28;20039;-89
2022/08/22 09:23:22;;;;;;;12.20;3.60;;;21.10;99.90;;;;;;4977323;28;20055;-88
2022/08/22 09:26:19;;;;;;;11.63;3.72;;;21.30;99.90;;;;;;4981684;28;20065;-89
2022/08/22 09:29:13;;;;;;;11.85;3.20;;;21.30;99.90;;;;;;4978496;28;20038;-88
2022/08/22 09:32:09;;;;;;;11.40;3.17;;;21.40;99.90;;;;;;4995760;28;20042;-89
2022/08/22 09:35:01;;;;;;;13.27;3.67;;;21.50;99.90;;;;;;4963053;28;20107;-88
2022/08/22 09:38:06;;;;;;;12.40;3.10;;;21.50;99.90;;;;;;4953281;28;20535;-89
2022/08/22 09:40:58;;;;;;;14.50;2.90;;;21.60;99.90;;;;;;4919380;29;20115;-89
2022/08/22 09:44:14;;;;;;;10.32;2.60;;;21.70;99.90;;;;;;4974677;28;20058;-89
2022/08/22 09:47:11;;;;;;;12.55;3.22;;;21.70;99.90;;;;;;4976097;28;20182;-89
2022/08/22 09:50:14;;;;;;;10.07;3.00;;;21.80;99.90;;;;;;4975222;28;20051;-88
2022/08/22 09:52:58;;;;;;;11.50;3.60;;;21.90;99.90;;;;;;4985473;28;20055;-90
2022/08/22 09:55:26;;;;;;;12.73;3.30;;;21.90;99.90;;;;;;4981582;28;20073;-89
2022/08/22 09:58:46;;;;;;;12.15;3.15;;;21.80;99.90;;;;;;4975447;28;20076;-89
2022/08/22 10:01:21;;;;;;;12.15;3.28;;;21.90;99.90;;;;;;4976535;28;20046;-87
2022/08/22 10:04:14;;;;;;;13.20;3.50;;;22.10;99.90;;;;;;4957340;28;20062;-87
2022/08/22 10:07:02;;;;;;;10.35;2.72;;;21.60;99.90;;;;;;4957743;28;20054;-87
2022/08/22 10:10:00;;;;;;;10.70;2.80;;;22.20;99.90;;;;;;4958171;28;20050;-88
2022/08/22 10:13:16;;;;;;;10.23;2.97;;;22.10;99.90;;;;;;4974711;28;20051;-87
2022/08/22 10:16:19;;;;;;;10.23;2.78;;;22.30;99.90;;;;;;4958277;28;20062;-91
2022/08/22 10:19:09;;;;;;;9.00;2.97;;;22.40;99.90;;;;;;4957450;28;20510;-92
2022/08/22 10:21:45;;;;;;;12.25;3.10;;;22.60;99.90;;;;;;4958288;28;20483;-88
2022/08/22 10:24:42;;;;;;;11.32;3.13;;;22.50;99.90;;;;;;4975074;28;20134;-90
2022/08/22 10:27:15;;;;;;;8.75;2.85;;;22.40;99.90;;;;;;4975297;28;20090;-84
2022/08/22 10:29:47;;;;;;;11.30;3.25;;;22.50;99.90;;;;;;4975527;28;20042;-87
2022/08/22 10:32:46;;;;;;;9.68;3.05;;;22.60;99.90;;;;;;4973900;28;20049;-91
2022/08/22 10:35:50;;;;;;;12.63;3.38;;;22.80;99.90;;;;;;4959420;28;20402;-90
2022/08/22 10:38:30;;;;;;;11.63;2.90;;;22.90;99.90;;;;;;4984374;28;20039;-91
2022/08/22 10:41:11;;;;;;;10.57;3.42;;;23.10;99.90;;;;;;4980274;28;20038;-89
2022/08/22 10:43:42;;;;;;;9.90;3.10;;;23.20;99.90;;;;;;4965008;28;20086;-89
2022/08/22 10:46:17;;;;;;;11.10;3.33;;;23.30;99.90;;;;;;4958692;28;20863;-90
2022/08/22 10:49:30;;;;;;;14.13;3.40;;;23.80;99.90;;;;;;4975290;28;20050;-90
2022/08/22 10:52:13;;;;;;;10.77;3.05;;;23.40;99.90;;;;;;4975235;28;20069;-90
2022/08/22 10:54:55;;;;;;;10.60;3.05;;;23.50;99.90;;;;;;4974810;28;20043;-91
2022/08/22 10:57:34;;;;;;;12.23;3.35;;;23.60;99.90;;;;;;4974978;28;20062;-87
2022/08/22 11:00:52;;;;;;;9.88;3.08;;;23.70;99.90;;;;;;4974242;28;20042;-88
2022/08/22 11:03:28;;;;;;;11.77;3.30;;;23.70;99.90;;;;;;4957067;28;20047;-84
2022/08/22 11:06:00;;;;;;;8.70;2.80;;;23.80;99.90;;;;;;4957565;28;20082;-84
2022/08/22 11:08:57;;;;;;;10.98;2.90;;;23.80;99.90;;;;;;4956447;28;20121;-85
2022/08/22 11:11:37;;;;;;;12.90;3.17;;;23.80;99.90;;;;;;4974562;28;20043;-85
2022/08/22 11:14:37;;;;;;;11.45;3.63;;;23.90;99.90;;;;;;4974150;28;20443;-84
2022/08/22 11:17:34;;;;;;;11.73;3.05;;;24.00;99.90;;;;;;4974375;28;20388;-84
2022/08/22 11:20:14;;;;;;;9.80;3.10;;;24.20;99.90;;;;;;4888863;28;20563;-83
2022/08/22 11:23:12;;;;;;;9.75;2.80;;;24.70;99.90;;;;;;4974703;28;20049;-82
2022/08/22 11:25:47;;;;;;;11.77;3.42;;;25.00;99.90;;;;;;4930508;28;20058;-82
2022/08/22 11:28:27;;;;;;;10.88;3.30;;;24.90;99.90;;;;;;4957507;28;20051;-82
2022/08/22 11:31:04;;;;;;;13.00;3.33;;;24.70;99.90;;;;;;4974562;28;20082;-83
2022/08/22 11:33:48;;;;;;;13.20;3.70;;;24.60;99.90;;;;;;4957119;28;20129;-83
2022/08/22 11:36:23;;;;;;;10.52;3.17;;;24.50;99.90;;;;;;4956115;28;20405;-84
2022/08/22 11:39:18;;;;;;;10.18;2.80;;;24.40;99.90;;;;;;4956706;28;20094;-82
2022/08/22 11:41:48;;;;;;;9.45;3.20;;;24.70;99.90;;;;;;4940414;28;20055;-88
2022/08/22 11:44:22;;;;;;;9.85;3.05;;;25.10;99.90;;;;;;4956023;28;20074;-89
2022/08/22 11:46:49;;;;;;;12.48;3.10;;;25.30;99.90;;;;;;4973099;28;20042;-84
2022/08/22 11:49:28;;;;;;;10.52;3.22;;;25.80;99.90;;;;;;4955941;28;20363;-86
2022/08/22 11:52:01;;;;;;;10.65;3.03;;;25.70;99.90;;;;;;4974207;28;20054;-81
2022/08/22 11:54:54;;;;;;;11.45;3.38;;;25.80;99.90;;;;;;4974964;28;20050;-86
2022/08/22 11:57:33;;;;;;;10.90;3.08;;;26.00;99.90;;;;;;4971714;28;20058;-85
2022/08/22 12:00:11;;;;;;;10.80;3.17;;;25.90;99.90;;;;;;4974367;28;20097;-93
2022/08/22 12:02:48;;;;;;;12.00;3.33;;;26.40;99.90;;;;;;4958062;28;20097;-92
2022/08/22 12:05:21;;;;;;;13.00;2.95;;;26.70;99.90;;;;;;4974489;28;20125;-94
2022/08/22 12:07:58;;;;;;;9.90;3.22;;;27.10;99.90;;;;;;4958656;28;20043;-93
2022/08/22 12:10:31;;;;;;;12.48;3.38;;;27.40;99.90;;;;;;4973917;28;20054;-89
2022/08/22 12:13:06;;;;;;;10.15;3.13;;;27.30;99.90;;;;;;4980801;28;20058;-90
2022/08/22 12:16:01;;;;;;;12.27;3.47;;;27.10;99.90;;;;;;4974530;28;20046;-89
2022/08/22 12:18:42;;;;;;;9.40;3.28;;;27.10;99.90;;;;;;4943196;28;20066;-88
2022/08/22 12:21:23;;;;;;;12.88;3.42;;;27.10;99.90;;;;;;4956877;28;20057;-86
2022/08/22 12:24:00;;;;;;;11.02;3.30;;;27.20;99.90;;;;;;4974029;28;20043;-87
2022/08/22 12:26:49;;;;;;;11.70;3.47;;;27.10;99.90;;;;;;4973251;28;20051;-91
2022/08/22 12:29:43;;;;;;;8.43;2.92;;;27.10;99.90;;;;;;4973418;28;20611;-84
2022/08/22 12:32:33;;;;;;;10.15;3.10;;;27.10;99.90;;;;;;4973143;28;20401;-84
2022/08/22 12:35:22;;;;;;;9.27;2.92;;;27.10;99.90;;;;;;4973684;28;20054;-91
2022/08/22 12:38:15;;;;;;;11.48;3.50;;;27.10;99.60;;;;;;4956435;28;20484;-82
2022/08/22 12:41:08;;;;;;;10.35;3.22;;;27.10;99.90;;;;;;4972849;28;20093;-81
2022/08/22 12:43:58;;;;;;;12.05;3.55;;;27.00;99.90;;;;;;4973140;28;20115;-82
2022/08/22 12:46:59;;;;;;;11.40;3.20;;;27.00;99.90;;;;;;4955260;28;20050;-83
2022/08/22 12:49:40;;;;;;;13.00;3.38;;;26.90;99.90;;;;;;4951381;28;20058;-82
2022/08/22 12:52:23;;;;;;;12.73;3.58;;;26.80;99.90;;;;;;4972448;28;20054;-84
2022/08/22 12:55:03;;;;;;;11.77;3.53;;;26.70;99.90;;;;;;4973090;28;20050;-82
2022/08/22 12:57:45;;;;;;;9.60;3.10;;;26.60;99.90;;;;;;4973237;28;20097;-84
2022/08/22 13:00:20;;;;;;;12.57;3.10;;;26.70;99.90;;;;;;4972391;28;20043;-84
2022/08/22 13:02:52;;;;;;;12.95;3.25;;;26.70;99.90;;;;;;4964971;28;20039;-88
2022/08/22 13:05:47;;;;;;;12.25;3.00;;;26.60;99.90;;;;;;4957798;28;20059;-88
2022/08/22 13:11:43;;;;;;;8.88;2.78;;;26.70;99.60;;;;;;4976748;28;20465;-90
2022/08/22 13:14:27;;;;;;;10.02;2.50;;;26.70;98.90;;;;;;4958799;28;20054;-86
2022/08/22 13:17:20;;;;;;;9.52;3.00;;;26.70;99.90;;;;;;4959360;28;20093;-87
2022/08/22 13:20:10;;;;;;;11.73;2.78;;;26.60;99.70;;;;;;4963392;28;20402;-86
2022/08/22 13:23:19;;;;;;;9.45;3.08;;;26.40;99.90;;;;;;4976100;28;20046;-86
2022/08/22 13:29:25;;;;;;;9.55;3.25;;;26.40;99.90;;;;;;4923676;29;20032;-92
2022/08/22 13:32:17;;;;;;;11.55;3.28;;;26.30;99.90;;;;;;4979318;28;20081;-92
2022/08/22 13:34:49;;;;;;;9.48;2.90;;;26.30;99.90;;;;;;4975604;28;20106;-93
2022/08/22 13:37:36;;;;;;;8.30;2.80;;;26.40;99.90;;;;;;4976741;28;20557;-92
2022/08/22 13:40:24;;;;;;;9.50;2.90;;;27.00;99.90;;;;;;4959322;28;20316;-92
2022/08/22 13:43:09;;;;;;;11.02;3.00;;;26.70;98.60;;;;;;4963476;28;20065;-92
2022/08/22 13:46:15;;;;;;;;;;;;;;;;;;;;;
2022/08/22 13:48:59;;;;;;;8.40;2.70;;;26.70;98.10;;;;;;4957819;28;20062;-86
2022/08/22 13:51:34;;;;;;;9.95;2.70;;;26.80;98.80;;;;;;4958172;28;20129;-86
2022/08/22 13:54:57;;;;;;;8.73;2.85;;;26.80;97.60;;;;;;5039133;23;20030;-85
2022/08/22 13:57:48;;;;;;;9.80;2.70;;;26.90;96.90;;;;;;4956987;28;20491;-86
2022/08/22 14:00:56;;;;;;;12.45;2.90;;;27.00;96.80;;;;;;4975558;28;20062;-86
2022/08/22 14:03:45;;;;;;;11.13;2.83;;;27.00;96.80;;;;;;4974252;28;20062;-86
2022/08/22 14:06:38;;;;;;;7.93;2.65;;;27.00;96.70;;;;;;4987104;28;20026;-89
2022/08/22 14:09:25;;;;;;;8.90;2.70;;;27.00;97.20;;;;;;4978850;28;20046;-90
2022/08/22 14:16:06;;;;;;;11.00;2.72;;;27.00;96.20;;;;;;4980880;28;20093;-88
2022/08/22 14:18:54;;;;;;;8.93;2.60;;;26.60;96.30;;;;;;4981378;28;20039;-88
2022/08/22 14:22:12;;;;;;;7.35;2.25;;;26.70;95.70;;;;;;4973779;23;20137;-89
2022/08/22 14:25:28;;;;;;;9.30;2.72;;;26.20;95.80;;;;;;4982445;28;20173;-89
2022/08/22 14:28:04;;;;;;;8.95;2.65;;;26.30;96.70;;;;;;4972954;28;20051;-89
2022/08/22 14:31:26;;;;;;;;;;;;;;;;;;;;;
2022/08/22 14:34:30;;;;;;;10.48;2.67;;;26.30;96.80;;;;;;4932209;28;20051;-86
2022/08/22 14:37:24;;;;;;;9.35;2.55;;;26.20;96.90;;;;;;5066593;23;20043;-86
2022/08/22 14:40:13;;;;;;;8.77;2.50;;;26.30;97.10;;;;;;4939289;29;20439;-88
2022/08/22 14:42:53;;;;;;;7.82;2.47;;;26.30;96.90;;;;;;4955598;29;20105;-90
2022/08/22 14:49:19;;;;;;;8.07;2.55;;;26.80;96.60;;;;;;4920022;29;20130;-85
2022/08/22 14:54:38;;;;;;;7.72;2.30;;;27.80;96.40;;;;;;5246792;23;20062;-88
2022/08/22 14:57:15;;;;;;;8.90;2.67;;;28.20;96.00;;;;;;4978128;28;20039;-96
2022/08/22 15:00:14;;;;;;;9.27;2.75;;;28.10;95.30;;;;;;4961634;28;20059;-91
2022/08/22 15:03:14;;;;;;;;;;;;;;;;;;;;;